Lubbock, TX (79401)

2:13 PM CDT on October 01, 2016 (GMT -0500)
APRSWXNET | | Change Station

Elev 3221 ft 33.58 °N, 101.88 °W | Updated 26 minutes ago

Partly Cloudy
Partly Cloudy
79 °F
Feels Like 80 °F
N
0
Wind Variable Wind from NW
Gusts 9.0 mph

Today
High -- | Low -- °F
--% Chance of Precip.
Yesterday
High -- | Low -- °F
Precip. -- in
Pressure 29.93 in
Visibility 10.0 miles
Clouds Few 5500 ft
Few 22000 ft
Heat Index 80 °F
Dew Point 59 °F
Humidity 50%
Rainfall in
Snow Depth Not available.
7:42 AM 7:31 PM
New Moon, 1% visible
METAR KLBB 011853Z 18017KT 10SM FEW055 FEW220 27/13 A3007 RMK AO2 SLP134 T02720133 $
Pressure 29.93 in
Visibility 10.0 miles
Clouds Few 5500 ft
Few 22000 ft
Heat Index 80 °F
Dew Point 59 °F
Humidity 50%
Rainfall in
Snow Depth Not available.
7:42 AM 7:31 PM
New Moon, 1% visible
METAR KLBB 011853Z 18017KT 10SM FEW055 FEW220 27/13 A3007 RMK AO2 SLP134 T02720133 $

10-Day Weather Forecast

Almanac

Astronomy

Oct. 01, 2016 Rise Set
Actual Time
Civil Twilight
Nautical Twilight
Astronomical Twilight
Moon
Length of Visible Light
Length of Day
Tomorrow will be .
, % of the Moon is Illuminated

Today's Extremes

State Highs State Lows

Community

WunderPhotos

Upload Photos

1,942,999 photos uploaded!

WunderBlog® & News

Nearby

Air Quality

  Air Quality AQ Index Pollutant
Not available.

Snow Depth

Station Depth Elevation

Earthquake Activity

City Distance Mag. Time & Date
Minimum magnitude displayed is 2.5.

Coastal Water Temperatures

Place Temperature

Stations

Nearby Weather Stations

Station Location Temp. Windchill Dew Point Humidity Wind Precip. Elev Updated Type
                   

Watches & Warnings

There are currently no watches in effect.